sensor_id;sensor_type;location;lat;lon;timestamp;temperature;humidity
37052;DHT22;22964;52.272;13.356;2022-12-11T00:02:17;3.40;72.50
37052;DHT22;22964;52.272;13.356;2022-12-11T00:04:43;3.40;72.60
37052;DHT22;22964;52.272;13.356;2022-12-11T00:07:09;3.30;72.50
37052;DHT22;22964;52.272;13.356;2022-12-11T00:09:34;3.30;72.70
37052;DHT22;22964;52.272;13.356;2022-12-11T00:12:00;3.30;72.50
37052;DHT22;22964;52.272;13.356;2022-12-11T00:14:27;3.30;72.60
37052;DHT22;22964;52.272;13.356;2022-12-11T00:16:54;3.30;72.60
37052;DHT22;22964;52.272;13.356;2022-12-11T00:19:19;3.30;72.70
37052;DHT22;22964;52.272;13.356;2022-12-11T00:21:45;3.30;72.80
37052;DHT22;22964;52.272;13.356;2022-12-11T00:24:11;3.30;72.80
37052;DHT22;22964;52.272;13.356;2022-12-11T00:26:37;3.30;72.70
37052;DHT22;22964;52.272;13.356;2022-12-11T00:29:04;3.30;72.50
37052;DHT22;22964;52.272;13.356;2022-12-11T00:31:30;3.30;72.50
37052;DHT22;22964;52.272;13.356;2022-12-11T00:33:56;3.30;72.50
37052;DHT22;22964;52.272;13.356;2022-12-11T00:36:24;3.30;72.70
37052;DHT22;22964;52.272;13.356;2022-12-11T00:38:50;3.30;72.50
37052;DHT22;22964;52.272;13.356;2022-12-11T00:41:17;3.30;72.60
37052;DHT22;22964;52.272;13.356;2022-12-11T00:43:43;3.30;72.60
37052;DHT22;22964;52.272;13.356;2022-12-11T00:46:09;3.30;72.60
37052;DHT22;22964;52.272;13.356;2022-12-11T00:48:34;3.30;72.50
37052;DHT22;22964;52.272;13.356;2022-12-11T00:51:00;3.30;72.50
37052;DHT22;22964;52.272;13.356;2022-12-11T00:53:26;3.30;72.50
37052;DHT22;22964;52.272;13.356;2022-12-11T00:55:52;3.30;73.30
37052;DHT22;22964;52.272;13.356;2022-12-11T00:58:18;3.30;72.50
37052;DHT22;22964;52.272;13.356;2022-12-11T01:00:43;3.30;72.50
37052;DHT22;22964;52.272;13.356;2022-12-11T01:03:12;3.30;72.60
37052;DHT22;22964;52.272;13.356;2022-12-11T01:05:38;3.30;72.60
37052;DHT22;22964;52.272;13.356;2022-12-11T01:08:04;3.30;72.40
37052;DHT22;22964;52.272;13.356;2022-12-11T01:10:31;3.30;72.30
37052;DHT22;22964;52.272;13.356;2022-12-11T01:13:05;3.30;72.20
37052;DHT22;22964;52.272;13.356;2022-12-11T01:15:39;3.20;72.00
37052;DHT22;22964;52.272;13.356;2022-12-11T01:18:05;3.20;72.10
37052;DHT22;22964;52.272;13.356;2022-12-11T01:20:31;3.20;72.50
37052;DHT22;22964;52.272;13.356;2022-12-11T01:22:58;3.20;72.50
37052;DHT22;22964;52.272;13.356;2022-12-11T01:25:26;3.20;72.60
37052;DHT22;22964;52.272;13.356;2022-12-11T01:27:53;3.20;72.60
37052;DHT22;22964;52.272;13.356;2022-12-11T01:30:20;3.20;72.70
37052;DHT22;22964;52.272;13.356;2022-12-11T01:32:46;3.20;72.70
37052;DHT22;22964;52.272;13.356;2022-12-11T01:35:12;3.20;72.70
37052;DHT22;22964;52.272;13.356;2022-12-11T01:37:38;3.20;72.70
37052;DHT22;22964;52.272;13.356;2022-12-11T01:40:05;3.20;72.70
37052;DHT22;22964;52.272;13.356;2022-12-11T01:42:31;3.20;72.60
37052;DHT22;22964;52.272;13.356;2022-12-11T01:45:24;3.20;72.60
37052;DHT22;22964;52.272;13.356;2022-12-11T01:47:57;3.20;72.30
37052;DHT22;22964;52.272;13.356;2022-12-11T01:50:24;3.30;72.40
37052;DHT22;22964;52.272;13.356;2022-12-11T01:52:50;3.30;72.60
37052;DHT22;22964;52.272;13.356;2022-12-11T01:55:16;3.30;72.60
37052;DHT22;22964;52.272;13.356;2022-12-11T01:57:44;3.30;72.60
37052;DHT22;22964;52.272;13.356;2022-12-11T02:00:11;3.30;72.50
37052;DHT22;22964;52.272;13.356;2022-12-11T02:02:43;3.30;72.50
37052;DHT22;22964;52.272;13.356;2022-12-11T02:05:09;3.30;72.50
37052;DHT22;22964;52.272;13.356;2022-12-11T02:07:38;3.30;72.50
37052;DHT22;22964;52.272;13.356;2022-12-11T02:10:07;3.30;72.30
37052;DHT22;22964;52.272;13.356;2022-12-11T02:18:19;3.30;72.00
37052;DHT22;22964;52.272;13.356;2022-12-11T02:21:06;3.30;71.90
37052;DHT22;22964;52.272;13.356;2022-12-11T02:29:33;3.20;71.90
37052;DHT22;22964;52.272;13.356;2022-12-11T02:32:04;3.20;72.10
37052;DHT22;22964;52.272;13.356;2022-12-11T02:34:40;3.20;72.10
37052;DHT22;22964;52.272;13.356;2022-12-11T02:37:11;3.20;72.10
37052;DHT22;22964;52.272;13.356;2022-12-11T02:39:41;3.20;72.20
37052;DHT22;22964;52.272;13.356;2022-12-11T02:42:10;3.20;72.10
37052;DHT22;22964;52.272;13.356;2022-12-11T02:44:37;3.20;72.10
37052;DHT22;22964;52.272;13.356;2022-12-11T02:47:08;3.20;72.10
37052;DHT22;22964;52.272;13.356;2022-12-11T02:49:35;3.30;72.20
37052;DHT22;22964;52.272;13.356;2022-12-11T02:52:02;3.20;72.20
37052;DHT22;22964;52.272;13.356;2022-12-11T02:54:31;3.20;72.20
37052;DHT22;22964;52.272;13.356;2022-12-11T02:57:13;3.20;72.20
37052;DHT22;22964;52.272;13.356;2022-12-11T02:59:42;3.20;72.10
37052;DHT22;22964;52.272;13.356;2022-12-11T03:02:10;3.20;72.30
37052;DHT22;22964;52.272;13.356;2022-12-11T03:04:35;3.30;72.40
37052;DHT22;22964;52.272;13.356;2022-12-11T03:07:05;3.30;72.40
37052;DHT22;22964;52.272;13.356;2022-12-11T03:09:39;3.30;72.20
37052;DHT22;22964;52.272;13.356;2022-12-11T03:12:06;3.20;72.10
37052;DHT22;22964;52.272;13.356;2022-12-11T03:14:34;3.30;72.00
37052;DHT22;22964;52.272;13.356;2022-12-11T03:17:18;3.30;72.00
37052;DHT22;22964;52.272;13.356;2022-12-11T03:20:10;3.20;71.90
37052;DHT22;22964;52.272;13.356;2022-12-11T03:22:46;3.20;71.90
37052;DHT22;22964;52.272;13.356;2022-12-11T03:25:17;3.30;72.10
37052;DHT22;22964;52.272;13.356;2022-12-11T03:27:53;3.20;72.10
37052;DHT22;22964;52.272;13.356;2022-12-11T03:30:23;3.20;72.10
37052;DHT22;22964;52.272;13.356;2022-12-11T03:32:55;3.20;72.20
37052;DHT22;22964;52.272;13.356;2022-12-11T03:35:32;3.20;72.30
37052;DHT22;22964;52.272;13.356;2022-12-11T03:38:07;3.20;72.20
37052;DHT22;22964;52.272;13.356;2022-12-11T03:40:35;3.20;72.20
37052;DHT22;22964;52.272;13.356;2022-12-11T03:43:02;3.20;72.40
37052;DHT22;22964;52.272;13.356;2022-12-11T03:45:29;3.20;72.40
37052;DHT22;22964;52.272;13.356;2022-12-11T03:47:57;3.20;72.40
37052;DHT22;22964;52.272;13.356;2022-12-11T03:50:26;3.20;72.40
37052;DHT22;22964;52.272;13.356;2022-12-11T03:52:53;3.20;72.40
37052;DHT22;22964;52.272;13.356;2022-12-11T03:55:21;3.20;72.40
37052;DHT22;22964;52.272;13.356;2022-12-11T03:57:47;3.20;72.40
37052;DHT22;22964;52.272;13.356;2022-12-11T04:00:16;3.20;72.40
37052;DHT22;22964;52.272;13.356;2022-12-11T04:02:43;3.20;72.40
37052;DHT22;22964;52.272;13.356;2022-12-11T04:05:10;3.20;72.50
37052;DHT22;22964;52.272;13.356;2022-12-11T04:07:36;3.20;72.60
37052;DHT22;22964;52.272;13.356;2022-12-11T04:10:03;3.20;72.60
37052;DHT22;22964;52.272;13.356;2022-12-11T04:12:29;3.10;72.60
37052;DHT22;22964;52.272;13.356;2022-12-11T04:14:54;3.20;72.70
37052;DHT22;22964;52.272;13.356;2022-12-11T04:17:31;3.20;72.70
37052;DHT22;22964;52.272;13.356;2022-12-11T04:20:15;3.20;72.80
37052;DHT22;22964;52.272;13.356;2022-12-11T04:23:01;3.10;72.80
37052;DHT22;22964;52.272;13.356;2022-12-11T04:25:46;3.10;72.80
37052;DHT22;22964;52.272;13.356;2022-12-11T04:28:11;3.10;72.80
37052;DHT22;22964;52.272;13.356;2022-12-11T04:30:37;3.10;72.80
37052;DHT22;22964;52.272;13.356;2022-12-11T04:33:03;3.10;72.90
37052;DHT22;22964;52.272;13.356;2022-12-11T04:35:29;3.10;73.00
37052;DHT22;22964;52.272;13.356;2022-12-11T04:37:54;3.20;73.10
37052;DHT22;22964;52.272;13.356;2022-12-11T04:40:20;3.10;73.00
37052;DHT22;22964;52.272;13.356;2022-12-11T04:42:46;3.10;72.90
37052;DHT22;22964;52.272;13.356;2022-12-11T04:45:12;3.10;72.90
37052;DHT22;22964;52.272;13.356;2022-12-11T04:47:39;3.10;72.90
37052;DHT22;22964;52.272;13.356;2022-12-11T04:50:07;3.10;73.00
37052;DHT22;22964;52.272;13.356;2022-12-11T04:52:33;3.20;73.00
37052;DHT22;22964;52.272;13.356;2022-12-11T04:54:59;3.10;72.90
37052;DHT22;22964;52.272;13.356;2022-12-11T04:57:25;3.10;73.00
37052;DHT22;22964;52.272;13.356;2022-12-11T04:59:50;3.10;73.00
37052;DHT22;22964;52.272;13.356;2022-12-11T05:02:16;3.10;73.80
37052;DHT22;22964;52.272;13.356;2022-12-11T05:04:42;3.10;73.00
37052;DHT22;22964;52.272;13.356;2022-12-11T05:07:08;3.10;73.10
37052;DHT22;22964;52.272;13.356;2022-12-11T05:09:34;3.10;73.90
37052;DHT22;22964;52.272;13.356;2022-12-11T05:12:00;3.10;73.10
37052;DHT22;22964;52.272;13.356;2022-12-11T05:14:26;3.20;73.20
37052;DHT22;22964;52.272;13.356;2022-12-11T05:16:59;3.20;73.20
37052;DHT22;22964;52.272;13.356;2022-12-11T05:19:25;3.20;73.30
37052;DHT22;22964;52.272;13.356;2022-12-11T05:21:51;3.20;73.20
37052;DHT22;22964;52.272;13.356;2022-12-11T05:24:17;3.20;73.20
37052;DHT22;22964;52.272;13.356;2022-12-11T05:26:43;3.20;73.20
37052;DHT22;22964;52.272;13.356;2022-12-11T05:29:09;3.20;73.20
37052;DHT22;22964;52.272;13.356;2022-12-11T05:31:34;3.20;74.10
37052;DHT22;22964;52.272;13.356;2022-12-11T05:34:00;3.20;73.20
37052;DHT22;22964;52.272;13.356;2022-12-11T05:36:29;3.20;73.30
37052;DHT22;22964;52.272;13.356;2022-12-11T05:38:55;3.20;73.30
37052;DHT22;22964;52.272;13.356;2022-12-11T05:41:23;3.10;73.20
37052;DHT22;22964;52.272;13.356;2022-12-11T05:43:50;3.20;73.20
37052;DHT22;22964;52.272;13.356;2022-12-11T05:46:21;3.20;73.20
37052;DHT22;22964;52.272;13.356;2022-12-11T05:48:50;3.10;73.10
37052;DHT22;22964;52.272;13.356;2022-12-11T05:51:17;3.20;73.30
37052;DHT22;22964;52.272;13.356;2022-12-11T05:53:44;3.20;73.20
37052;DHT22;22964;52.272;13.356;2022-12-11T05:58:38;3.10;73.10
37052;DHT22;22964;52.272;13.356;2022-12-11T06:01:12;3.20;73.30
37052;DHT22;22964;52.272;13.356;2022-12-11T06:03:38;3.10;73.20
37052;DHT22;22964;52.272;13.356;2022-12-11T06:06:04;3.20;73.30
37052;DHT22;22964;52.272;13.356;2022-12-11T06:08:31;3.10;74.20
37052;DHT22;22964;52.272;13.356;2022-12-11T06:10:57;3.10;74.30
37052;DHT22;22964;52.272;13.356;2022-12-11T06:13:23;3.20;73.50
37052;DHT22;22964;52.272;13.356;2022-12-11T06:15:48;3.20;73.50
37052;DHT22;22964;52.272;13.356;2022-12-11T06:18:14;3.10;73.60
37052;DHT22;22964;52.272;13.356;2022-12-11T06:20:40;3.20;73.70
37052;DHT22;22964;52.272;13.356;2022-12-11T06:23:06;3.10;73.70
37052;DHT22;22964;52.272;13.356;2022-12-11T06:25:32;3.20;73.70
37052;DHT22;22964;52.272;13.356;2022-12-11T06:27:58;3.10;73.70
37052;DHT22;22964;52.272;13.356;2022-12-11T06:30:24;3.10;73.80
37052;DHT22;22964;52.272;13.356;2022-12-11T06:32:50;3.20;73.80
37052;DHT22;22964;52.272;13.356;2022-12-11T06:35:15;3.20;73.80
37052;DHT22;22964;52.272;13.356;2022-12-11T06:37:41;3.20;73.70
37052;DHT22;22964;52.272;13.356;2022-12-11T06:40:08;3.20;73.90
37052;DHT22;22964;52.272;13.356;2022-12-11T06:42:35;3.20;73.80
37052;DHT22;22964;52.272;13.356;2022-12-11T06:45:02;3.20;74.00
37052;DHT22;22964;52.272;13.356;2022-12-11T06:47:29;3.20;74.00
37052;DHT22;22964;52.272;13.356;2022-12-11T06:49:55;3.20;73.90
37052;DHT22;22964;52.272;13.356;2022-12-11T06:52:25;3.20;74.70
37052;DHT22;22964;52.272;13.356;2022-12-11T06:54:54;3.20;73.80
37052;DHT22;22964;52.272;13.356;2022-12-11T06:57:20;3.20;73.90
37052;DHT22;22964;52.272;13.356;2022-12-11T06:59:46;3.30;73.90
37052;DHT22;22964;52.272;13.356;2022-12-11T07:02:13;3.20;73.90
37052;DHT22;22964;52.272;13.356;2022-12-11T07:04:39;3.20;73.90
37052;DHT22;22964;52.272;13.356;2022-12-11T07:07:06;3.20;74.00
37052;DHT22;22964;52.272;13.356;2022-12-11T07:09:33;3.20;74.00
37052;DHT22;22964;52.272;13.356;2022-12-11T07:11:59;3.20;74.00
37052;DHT22;22964;52.272;13.356;2022-12-11T07:14:24;3.20;74.10
37052;DHT22;22964;52.272;13.356;2022-12-11T07:16:50;3.20;74.90
37052;DHT22;22964;52.272;13.356;2022-12-11T07:19:16;3.20;74.10
37052;DHT22;22964;52.272;13.356;2022-12-11T07:21:41;3.20;74.10
37052;DHT22;22964;52.272;13.356;2022-12-11T07:24:07;3.20;74.20
37052;DHT22;22964;52.272;13.356;2022-12-11T07:26:33;3.20;74.20
37052;DHT22;22964;52.272;13.356;2022-12-11T07:28:59;3.30;74.30
37052;DHT22;22964;52.272;13.356;2022-12-11T07:31:27;3.20;74.20
37052;DHT22;22964;52.272;13.356;2022-12-11T07:33:54;3.30;74.30
37052;DHT22;22964;52.272;13.356;2022-12-11T07:36:21;3.30;74.30
37052;DHT22;22964;52.272;13.356;2022-12-11T07:38:47;3.30;74.30
37052;DHT22;22964;52.272;13.356;2022-12-11T07:41:14;3.30;74.30
37052;DHT22;22964;52.272;13.356;2022-12-11T07:43:40;3.30;74.30
37052;DHT22;22964;52.272;13.356;2022-12-11T07:46:15;3.30;74.20
37052;DHT22;22964;52.272;13.356;2022-12-11T07:48:42;3.30;74.10
37052;DHT22;22964;52.272;13.356;2022-12-11T07:51:22;3.30;74.00
37052;DHT22;22964;52.272;13.356;2022-12-11T07:53:51;3.30;73.90
37052;DHT22;22964;52.272;13.356;2022-12-11T07:56:18;3.30;73.90
37052;DHT22;22964;52.272;13.356;2022-12-11T07:58:45;3.30;73.80
37052;DHT22;22964;52.272;13.356;2022-12-11T08:01:17;3.30;73.80
37052;DHT22;22964;52.272;13.356;2022-12-11T08:03:43;3.30;74.50
37052;DHT22;22964;52.272;13.356;2022-12-11T08:06:09;3.30;73.50
37052;DHT22;22964;52.272;13.356;2022-12-11T08:08:35;3.30;73.30
37052;DHT22;22964;52.272;13.356;2022-12-11T08:11:02;3.30;73.20
37052;DHT22;22964;52.272;13.356;2022-12-11T08:13:28;3.30;73.00
37052;DHT22;22964;52.272;13.356;2022-12-11T08:15:54;3.30;72.90
37052;DHT22;22964;52.272;13.356;2022-12-11T08:18:19;3.30;72.80
37052;DHT22;22964;52.272;13.356;2022-12-11T08:20:45;3.30;72.80
37052;DHT22;22964;52.272;13.356;2022-12-11T08:23:11;3.30;72.80
37052;DHT22;22964;52.272;13.356;2022-12-11T08:25:36;3.30;72.70
37052;DHT22;22964;52.272;13.356;2022-12-11T08:28:03;3.30;72.70
37052;DHT22;22964;52.272;13.356;2022-12-11T08:30:31;3.40;72.70
37052;DHT22;22964;52.272;13.356;2022-12-11T08:32:57;3.30;72.60
37052;DHT22;22964;52.272;13.356;2022-12-11T08:35:24;3.30;72.60
37052;DHT22;22964;52.272;13.356;2022-12-11T08:37:50;3.40;72.70
37052;DHT22;22964;52.272;13.356;2022-12-11T08:40:16;3.40;72.80
37052;DHT22;22964;52.272;13.356;2022-12-11T08:42:41;3.40;72.80
37052;DHT22;22964;52.272;13.356;2022-12-11T08:45:08;3.40;72.90
37052;DHT22;22964;52.272;13.356;2022-12-11T08:47:34;3.40;72.80
37052;DHT22;22964;52.272;13.356;2022-12-11T08:49:59;3.40;73.60
37052;DHT22;22964;52.272;13.356;2022-12-11T08:52:25;3.40;73.50
37052;DHT22;22964;52.272;13.356;2022-12-11T08:54:51;3.40;72.50
37052;DHT22;22964;52.272;13.356;2022-12-11T08:57:17;3.40;72.40
37052;DHT22;22964;52.272;13.356;2022-12-11T08:59:42;3.50;72.60
37052;DHT22;22964;52.272;13.356;2022-12-11T09:02:10;3.50;72.50
37052;DHT22;22964;52.272;13.356;2022-12-11T09:04:37;3.50;72.50
37052;DHT22;22964;52.272;13.356;2022-12-11T09:07:03;3.50;72.50
37052;DHT22;22964;52.272;13.356;2022-12-11T09:09:28;3.50;72.40
37052;DHT22;22964;52.272;13.356;2022-12-11T09:11:54;3.50;72.40
37052;DHT22;22964;52.272;13.356;2022-12-11T09:14:21;3.50;72.20
37052;DHT22;22964;52.272;13.356;2022-12-11T09:16:47;3.50;72.10
37052;DHT22;22964;52.272;13.356;2022-12-11T09:19:14;3.50;72.20
37052;DHT22;22964;52.272;13.356;2022-12-11T09:21:41;3.60;72.20
37052;DHT22;22964;52.272;13.356;2022-12-11T09:24:09;3.50;72.10
37052;DHT22;22964;52.272;13.356;2022-12-11T09:26:35;3.60;72.10
37052;DHT22;22964;52.272;13.356;2022-12-11T09:29:02;3.60;72.20
37052;DHT22;22964;52.272;13.356;2022-12-11T09:31:31;3.60;72.20
37052;DHT22;22964;52.272;13.356;2022-12-11T09:34:00;3.60;72.10
37052;DHT22;22964;52.272;13.356;2022-12-11T09:36:26;3.70;72.00
37052;DHT22;22964;52.272;13.356;2022-12-11T09:38:52;3.70;71.90
37052;DHT22;22964;52.272;13.356;2022-12-11T09:46:31;3.70;71.40
37052;DHT22;22964;52.272;13.356;2022-12-11T09:48:58;3.70;71.80
37052;DHT22;22964;52.272;13.356;2022-12-11T09:51:32;3.70;71.80
37052;DHT22;22964;52.272;13.356;2022-12-11T09:54:02;3.70;71.70
37052;DHT22;22964;52.272;13.356;2022-12-11T09:56:32;3.80;71.70
37052;DHT22;22964;52.272;13.356;2022-12-11T09:59:22;3.80;71.40
37052;DHT22;22964;52.272;13.356;2022-12-11T10:19:01;3.90;72.10
37052;DHT22;22964;52.272;13.356;2022-12-11T10:21:37;3.90;71.70
37052;DHT22;22964;52.272;13.356;2022-12-11T10:24:14;3.90;71.30
37052;DHT22;22964;52.272;13.356;2022-12-11T10:26:42;3.90;71.20
37052;DHT22;22964;52.272;13.356;2022-12-11T10:29:21;4.00;71.30
37052;DHT22;22964;52.272;13.356;2022-12-11T10:31:52;4.00;70.90
37052;DHT22;22964;52.272;13.356;2022-12-11T10:34:32;4.00;71.10
37052;DHT22;22964;52.272;13.356;2022-12-11T10:37:06;4.00;71.20
37052;DHT22;22964;52.272;13.356;2022-12-11T10:39:31;4.00;71.20
37052;DHT22;22964;52.272;13.356;2022-12-11T10:41:57;4.10;71.00
37052;DHT22;22964;52.272;13.356;2022-12-11T10:44:27;4.10;70.90
37052;DHT22;22964;52.272;13.356;2022-12-11T10:47:20;4.10;70.70
37052;DHT22;22964;52.272;13.356;2022-12-11T10:50:00;4.10;70.10
37052;DHT22;22964;52.272;13.356;2022-12-11T10:52:28;4.20;70.50
37052;DHT22;22964;52.272;13.356;2022-12-11T10:55:00;4.20;70.30
37052;DHT22;22964;52.272;13.356;2022-12-11T10:57:37;4.20;70.10
37052;DHT22;22964;52.272;13.356;2022-12-11T11:00:05;4.10;69.90
37052;DHT22;22964;52.272;13.356;2022-12-11T11:02:37;4.10;70.00
37052;DHT22;22964;52.272;13.356;2022-12-11T11:05:15;4.10;69.90
37052;DHT22;22964;52.272;13.356;2022-12-11T11:07:41;4.10;69.50
37052;DHT22;22964;52.272;13.356;2022-12-11T11:12:39;4.10;69.70
37052;DHT22;22964;52.272;13.356;2022-12-11T11:17:53;4.10;69.70
37052;DHT22;22964;52.272;13.356;2022-12-11T11:20:28;4.00;69.40
37052;DHT22;22964;52.272;13.356;2022-12-11T11:23:02;4.00;69.60
37052;DHT22;22964;52.272;13.356;2022-12-11T11:25:30;4.10;69.70
37052;DHT22;22964;52.272;13.356;2022-12-11T11:28:04;4.00;69.80
37052;DHT22;22964;52.272;13.356;2022-12-11T11:30:33;4.00;69.20
37052;DHT22;22964;52.272;13.356;2022-12-11T11:33:18;4.00;69.90
37052;DHT22;22964;52.272;13.356;2022-12-11T11:36:19;4.00;69.70
37052;DHT22;22964;52.272;13.356;2022-12-11T11:39:19;4.00;69.70
37052;DHT22;22964;52.272;13.356;2022-12-11T11:42:07;4.00;69.90
37052;DHT22;22964;52.272;13.356;2022-12-11T11:44:40;4.00;70.00
37052;DHT22;22964;52.272;13.356;2022-12-11T11:47:16;4.00;70.10
37052;DHT22;22964;52.272;13.356;2022-12-11T11:49:54;4.00;69.90
37052;DHT22;22964;52.272;13.356;2022-12-11T11:52:40;4.00;69.70
37052;DHT22;22964;52.272;13.356;2022-12-11T11:57:41;4.00;69.80
37052;DHT22;22964;52.272;13.356;2022-12-11T12:00:16;4.00;69.70
37052;DHT22;22964;52.272;13.356;2022-12-11T12:02:43;4.00;69.70
37052;DHT22;22964;52.272;13.356;2022-12-11T12:05:14;4.00;70.00
37052;DHT22;22964;52.272;13.356;2022-12-11T12:10:33;4.00;70.20
37052;DHT22;22964;52.272;13.356;2022-12-11T12:15:56;4.10;69.80
37052;DHT22;22964;52.272;13.356;2022-12-11T12:18:34;4.10;69.80
37052;DHT22;22964;52.272;13.356;2022-12-11T12:21:23;4.10;69.50
37052;DHT22;22964;52.272;13.356;2022-12-11T12:26:30;4.10;69.60
37052;DHT22;22964;52.272;13.356;2022-12-11T12:37:45;4.10;70.00
37052;DHT22;22964;52.272;13.356;2022-12-11T12:40:33;4.10;69.60
37052;DHT22;22964;52.272;13.356;2022-12-11T12:48:30;4.10;69.40
37052;DHT22;22964;52.272;13.356;2022-12-11T12:50:56;4.00;69.60
37052;DHT22;22964;52.272;13.356;2022-12-11T12:53:24;4.10;69.80
37052;DHT22;22964;52.272;13.356;2022-12-11T12:55:51;4.00;69.40
37052;DHT22;22964;52.272;13.356;2022-12-11T12:58:24;4.10;69.50
37052;DHT22;22964;52.272;13.356;2022-12-11T13:00:51;4.10;69.30
37052;DHT22;22964;52.272;13.356;2022-12-11T13:03:20;4.10;70.30
37052;DHT22;22964;52.272;13.356;2022-12-11T13:06:09;4.00;69.30
37052;DHT22;22964;52.272;13.356;2022-12-11T13:08:46;4.00;68.80
37052;DHT22;22964;52.272;13.356;2022-12-11T13:11:15;4.00;68.90
37052;DHT22;22964;52.272;13.356;2022-12-11T13:13:46;4.00;69.20
37052;DHT22;22964;52.272;13.356;2022-12-11T13:18:45;4.00;69.40
37052;DHT22;22964;52.272;13.356;2022-12-11T13:21:32;4.00;69.50
37052;DHT22;22964;52.272;13.356;2022-12-11T13:26:40;4.00;68.90
37052;DHT22;22964;52.272;13.356;2022-12-11T13:29:27;4.00;69.20
37052;DHT22;22964;52.272;13.356;2022-12-11T13:32:00;4.00;69.10
37052;DHT22;22964;52.272;13.356;2022-12-11T13:34:30;4.00;69.20
37052;DHT22;22964;52.272;13.356;2022-12-11T13:36:57;4.00;69.20
37052;DHT22;22964;52.272;13.356;2022-12-11T13:39:29;3.90;69.10
37052;DHT22;22964;52.272;13.356;2022-12-11T13:42:04;4.00;69.10
37052;DHT22;22964;52.272;13.356;2022-12-11T13:44:39;3.90;69.00
37052;DHT22;22964;52.272;13.356;2022-12-11T13:47:11;3.90;69.10
37052;DHT22;22964;52.272;13.356;2022-12-11T13:49:39;3.90;69.10
37052;DHT22;22964;52.272;13.356;2022-12-11T13:52:13;3.90;69.40
37052;DHT22;22964;52.272;13.356;2022-12-11T13:54:50;3.90;69.70
37052;DHT22;22964;52.272;13.356;2022-12-11T13:57:23;3.90;69.40
37052;DHT22;22964;52.272;13.356;2022-12-11T13:59:55;3.90;69.30
37052;DHT22;22964;52.272;13.356;2022-12-11T14:02:30;3.90;69.30
37052;DHT22;22964;52.272;13.356;2022-12-11T14:05:03;3.80;69.30
37052;DHT22;22964;52.272;13.356;2022-12-11T14:07:36;3.80;69.40
37052;DHT22;22964;52.272;13.356;2022-12-11T14:12:52;3.80;69.40
37052;DHT22;22964;52.272;13.356;2022-12-11T14:15:20;3.80;69.40
37052;DHT22;22964;52.272;13.356;2022-12-11T14:17:46;3.80;69.70
37052;DHT22;22964;52.272;13.356;2022-12-11T14:20:28;3.80;69.60
37052;DHT22;22964;52.272;13.356;2022-12-11T14:23:24;3.80;69.60
37052;DHT22;22964;52.272;13.356;2022-12-11T14:25:58;3.80;69.60
37052;DHT22;22964;52.272;13.356;2022-12-11T14:28:26;3.80;69.70
37052;DHT22;22964;52.272;13.356;2022-12-11T14:30:55;3.90;69.80
37052;DHT22;22964;52.272;13.356;2022-12-11T14:33:26;3.80;69.60
37052;DHT22;22964;52.272;13.356;2022-12-11T14:35:54;3.80;69.70
37052;DHT22;22964;52.272;13.356;2022-12-11T14:38:27;3.80;69.70
37052;DHT22;22964;52.272;13.356;2022-12-11T14:40:58;3.80;69.60
37052;DHT22;22964;52.272;13.356;2022-12-11T14:43:32;3.80;69.70
37052;DHT22;22964;52.272;13.356;2022-12-11T14:46:05;3.70;69.60
37052;DHT22;22964;52.272;13.356;2022-12-11T14:48:43;3.70;69.60
37052;DHT22;22964;52.272;13.356;2022-12-11T14:51:15;3.70;69.70
37052;DHT22;22964;52.272;13.356;2022-12-11T14:53:46;3.70;69.70
37052;DHT22;22964;52.272;13.356;2022-12-11T14:56:19;3.70;69.80
37052;DHT22;22964;52.272;13.356;2022-12-11T14:58:54;3.70;69.80
37052;DHT22;22964;52.272;13.356;2022-12-11T15:01:38;3.70;70.70
37052;DHT22;22964;52.272;13.356;2022-12-11T15:06:45;3.70;69.80
37052;DHT22;22964;52.272;13.356;2022-12-11T15:12:16;3.70;69.80
37052;DHT22;22964;52.272;13.356;2022-12-11T15:14:54;3.70;70.00
37052;DHT22;22964;52.272;13.356;2022-12-11T15:17:22;3.60;69.90
37052;DHT22;22964;52.272;13.356;2022-12-11T15:19:52;3.60;70.00
37052;DHT22;22964;52.272;13.356;2022-12-11T15:22:21;3.60;70.10
37052;DHT22;22964;52.272;13.356;2022-12-11T15:24:51;3.60;70.90
37052;DHT22;22964;52.272;13.356;2022-12-11T15:27:34;3.60;70.20
37052;DHT22;22964;52.272;13.356;2022-12-11T15:30:14;3.60;70.30
37052;DHT22;22964;52.272;13.356;2022-12-11T15:32:40;3.50;70.40
37052;DHT22;22964;52.272;13.356;2022-12-11T15:35:26;3.60;70.60
37052;DHT22;22964;52.272;13.356;2022-12-11T15:37:53;3.50;70.40
37052;DHT22;22964;52.272;13.356;2022-12-11T15:40:19;3.50;70.60
37052;DHT22;22964;52.272;13.356;2022-12-11T15:42:45;3.60;70.80
37052;DHT22;22964;52.272;13.356;2022-12-11T15:45:17;3.50;70.70
37052;DHT22;22964;52.272;13.356;2022-12-11T15:47:44;3.50;70.70
37052;DHT22;22964;52.272;13.356;2022-12-11T15:50:21;3.50;70.90
37052;DHT22;22964;52.272;13.356;2022-12-11T15:52:50;3.60;70.80
37052;DHT22;22964;52.272;13.356;2022-12-11T15:55:16;3.50;70.90
37052;DHT22;22964;52.272;13.356;2022-12-11T15:57:48;3.50;70.90
37052;DHT22;22964;52.272;13.356;2022-12-11T16:00:17;3.50;70.90
37052;DHT22;22964;52.272;13.356;2022-12-11T16:02:44;3.50;70.90
37052;DHT22;22964;52.272;13.356;2022-12-11T16:05:10;3.60;71.00
37052;DHT22;22964;52.272;13.356;2022-12-11T16:07:36;3.50;71.00
37052;DHT22;22964;52.272;13.356;2022-12-11T16:10:03;3.50;71.00
37052;DHT22;22964;52.272;13.356;2022-12-11T16:12:28;3.50;71.00
37052;DHT22;22964;52.272;13.356;2022-12-11T16:14:54;3.50;71.00
37052;DHT22;22964;52.272;13.356;2022-12-11T16:17:20;3.50;71.00
37052;DHT22;22964;52.272;13.356;2022-12-11T16:19:45;3.50;71.00
37052;DHT22;22964;52.272;13.356;2022-12-11T16:22:12;3.50;71.00
37052;DHT22;22964;52.272;13.356;2022-12-11T16:24:39;3.50;71.00
37052;DHT22;22964;52.272;13.356;2022-12-11T16:27:06;3.50;71.00
37052;DHT22;22964;52.272;13.356;2022-12-11T16:29:39;3.50;71.00
37052;DHT22;22964;52.272;13.356;2022-12-11T16:32:06;3.50;71.00
37052;DHT22;22964;52.272;13.356;2022-12-11T16:34:34;3.50;71.20
37052;DHT22;22964;52.272;13.356;2022-12-11T16:37:00;3.50;71.20
37052;DHT22;22964;52.272;13.356;2022-12-11T16:39:26;3.50;71.30
37052;DHT22;22964;52.272;13.356;2022-12-11T16:41:52;3.50;71.30
37052;DHT22;22964;52.272;13.356;2022-12-11T16:44:23;3.50;71.40
37052;DHT22;22964;52.272;13.356;2022-12-11T16:46:49;3.40;71.30
37052;DHT22;22964;52.272;13.356;2022-12-11T16:49:15;3.40;71.40
37052;DHT22;22964;52.272;13.356;2022-12-11T16:51:42;3.50;71.60
37052;DHT22;22964;52.272;13.356;2022-12-11T16:54:09;3.40;71.50
37052;DHT22;22964;52.272;13.356;2022-12-11T16:56:35;3.50;71.60
37052;DHT22;22964;52.272;13.356;2022-12-11T16:59:01;3.50;71.60
37052;DHT22;22964;52.272;13.356;2022-12-11T17:01:28;3.50;71.60
37052;DHT22;22964;52.272;13.356;2022-12-11T17:03:54;3.40;71.60
37052;DHT22;22964;52.272;13.356;2022-12-11T17:06:20;3.50;71.80